Stations météo

réclame
Mon MeteoGroup
Ile du Levant, France (7678): Température de l'air & dewpoint: 11.06.2019 21:00:00 - 17.06.2019 21:00:00 (CEST)Ile du Levant, France (7678): Vitesse du vent & gusts: 11.06.2019 21:00:00 - 17.06.2019 21:00:00 (CEST)Ile du Levant, France (7678): Direction du vent: 11.06.2019 21:00:00 - 17.06.2019 21:00:00 (CEST)Ile du Levant, France (7678): reduced air pressure: 11.06.2019 21:00:00 - 17.06.2019 21:00:00 (CEST)Ile du Levant, France (7678): Ensoleillement: 11.06.2019 21:00:00 - 17.06.2019 21:00:00 (CEST)Ile du Levant, France (7678): Quantités de précipitations: 11.06.2019 21:00:00 - 17.06.2019 21:00:00 (CEST)
Date & Time tt [°C] td [°C] ff [km/h] ff [knt] fx [km/h] fx [knt] dd ppp [hPa] sd [min] rr [mm]
17.06.2019 21:00:00 - - - - - - - - - -
17.06.2019 20:00:00 23,0 17,0 5 3 13 7 W 1014,6 60 -
17.06.2019 19:00:00 22,5 17,4 9 5 16 9 WNW 1014,5 60 0,0
17.06.2019 18:00:00 22,7 17,2 11 6 21 11 WNW 1014,8 60 0,0
17.06.2019 17:00:00 23,8 16,6 9 5 18 10 WNW 1015,0 60 0,0
17.06.2019 16:00:00 23,2 17,2 13 7 18 10 SSE 1015,4 60 0,0
17.06.2019 15:00:00 22,4 16,9 11 6 29 16 SSE 1015,7 60 0,0
17.06.2019 14:00:00 23,4 17,8 21 11 35 19 ESE 1015,6 60 -
17.06.2019 13:00:00 23,4 17,8 24 13 39 21 ESE 1015,5 60 0,0
17.06.2019 12:00:00 22,6 17,3 18 10 29 16 E 1015,7 60 0,0
17.06.2019 11:00:00 21,6 17,4 22 12 34 18 E 1016,1 60 0,0
17.06.2019 10:00:00 22,3 17,2 21 11 34 18 E 1015,9 60 0,0
17.06.2019 09:00:00 20,8 16,8 24 13 34 18 E 1015,5 60 0,0
17.06.2019 08:00:00 19,7 16,9 22 12 31 17 E 1015,1 54 -
17.06.2019 07:00:00 18,4 16,9 22 12 31 17 E 1015,1 6 0,0
17.06.2019 06:00:00 17,9 17,1 16 9 26 14 ENE 1014,7 0 0,0
17.06.2019 05:00:00 18,1 17,6 15 8 26 14 ENE 1014,8 0 0,0
17.06.2019 04:00:00 18,3 17,8 21 11 28 15 E 1014,6 0 0,0
17.06.2019 03:00:00 18,1 17,3 16 9 21 11 E 1014,3 0 0,0
17.06.2019 02:00:00 18,7 16,1 8 4 8 4 ESE 1014,5 0 -
17.06.2019 01:00:00 19,4 15,1 4 2 8 4 S 1014,7 0 0,0
17.06.2019 00:00:00 18,8 16,0 8 4 9 5 SE 1015,0 0 0,0
16.06.2019 23:00:00 19,0 16,8 5 3 8 4 SSE 1015,2 0 0,0
16.06.2019 22:00:00 19,2 17,2 4 2 8 4 ESE 1015,0 0 0,0
16.06.2019 21:00:00 20,0 16,4 4 2 8 4 SE 1014,9 54 0,0
16.06.2019 20:00:00 22,1 17,0 4 2 9 5 E 1014,8 60 -
16.06.2019 19:00:00 22,3 16,6 5 3 15 8 SSE 1015,1 60 0,0
16.06.2019 18:00:00 23,0 17,2 4 2 13 7 NNW 1015,2 60 0,0
16.06.2019 17:00:00 23,0 17,2 9 5 16 9 WNW 1015,4 60 0,0
16.06.2019 16:00:00 23,1 17,6 8 4 16 9 NW 1015,7 60 0,0
16.06.2019 15:00:00 22,9 16,7 5 3 18 10 SSE 1015,8 60 0,0
16.06.2019 14:00:00 22,6 16,4 9 5 18 10 SE 1015,9 60 -
16.06.2019 13:00:00 22,4 16,7 11 6 22 12 SE 1016,0 60 0,0
16.06.2019 12:00:00 22,5 16,5 15 8 24 13 SE 1016,1 60 0,0
16.06.2019 11:00:00 22,8 16,1 16 9 28 15 ESE 1016,1 60 0,0
16.06.2019 10:00:00 21,2 14,1 16 9 22 12 ESE 1015,9 60 0,0
16.06.2019 09:00:00 21,1 15,9 13 7 22 12 ESE 1015,8 54 0,0
16.06.2019 08:00:00 19,2 18,4 11 6 16 9 SE 1015,5 24 -
16.06.2019 07:00:00 18,8 18,1 8 4 15 8 SE 1015,0 30 0,0
16.06.2019 06:00:00 17,9 16,1 15 8 26 14 W 1014,7 0 0,0
16.06.2019 05:00:00 18,1 16,8 21 11 26 14 W 1014,6 0 0,0
16.06.2019 04:00:00 18,2 17,4 18 10 26 14 W 1014,7 0 0,0
16.06.2019 03:00:00 18,3 17,1 18 10 26 14 W 1015,1 0 0,0
16.06.2019 02:00:00 18,2 17,4 16 9 22 12 W 1015,4 0 -
16.06.2019 01:00:00 18,3 17,1 16 9 22 12 W 1015,7 0 0,0
16.06.2019 00:00:00 18,4 16,6 16 9 26 14 W 1015,8 0 0,0
15.06.2019 23:00:00 18,4 16,6 18 10 34 18 W 1015,7 0 0,0
15.06.2019 22:00:00 18,4 16,7 22 12 35 19 W 1015,4 0 0,0
15.06.2019 21:00:00 18,8 16,6 24 13 39 21 WSW 1015,1 48 0,0
15.06.2019 20:00:00 21,0 15,3 13 7 24 13 W 1015,4 60 -
15.06.2019 19:00:00 22,0 16,5 15 8 26 14 WSW 1015,1 60 0,0
15.06.2019 18:00:00 22,7 17,2 16 9 26 14 WSW 1015,1 60 0,0
15.06.2019 17:00:00 23,3 17,1 11 6 21 11 WSW 1015,6 60 0,0
15.06.2019 16:00:00 23,0 17,0 11 6 22 12 WNW 1015,9 60 0,0
15.06.2019 15:00:00 22,8 16,6 16 9 28 15 W 1016,4 60 0,0
15.06.2019 14:00:00 21,9 16,6 15 8 24 13 W 1016,6 60 -
15.06.2019 13:00:00 21,2 17,0 18 10 24 13 W 1017,0 60 0,0
15.06.2019 12:00:00 22,1 17,0 11 6 26 14 W 1016,9 48 0,0
15.06.2019 11:00:00 20,9 17,3 15 8 22 12 WSW 1016,7 60 0,0
15.06.2019 10:00:00 19,9 16,5 15 8 21 11 W 1016,4 60 0,0
15.06.2019 09:00:00 19,2 17,0 11 6 18 10 SW 1016,2 60 0,0
15.06.2019 08:00:00 17,9 17,1 15 8 22 12 SW 1015,9 36 -
15.06.2019 07:00:00 17,5 16,7 5 3 11 6 WSW 1015,4 12 0,0
15.06.2019 06:00:00 17,0 16,8 9 5 13 7 WSW 1015,2 0 0,0
15.06.2019 05:00:00 17,7 17,5 8 4 18 10 W 1014,9 0 0,0
15.06.2019 04:00:00 17,9 17,7 15 8 24 13 WNW 1014,7 0 0,0
15.06.2019 03:00:00 17,8 17,6 16 9 24 13 W 1014,5 0 0,0
15.06.2019 02:00:00 17,9 17,7 13 7 22 12 W 1014,4 0 -
15.06.2019 01:00:00 17,9 17,7 13 7 22 12 S 1014,3 0 0,0
15.06.2019 00:00:00 18,4 18,2 11 6 16 9 SE 1014,1 0 0,0
14.06.2019 23:00:00 18,6 18,3 13 7 26 14 SE 1013,8 0 0,0
14.06.2019 22:00:00 19,0 18,3 11 6 26 14 ESE 1013,0 0 0,0
14.06.2019 21:00:00 19,1 18,4 15 8 37 20 ESE 1012,1 0 0,0
14.06.2019 20:00:00 19,8 18,6 15 8 41 22 SE 1011,3 30 -
14.06.2019 19:00:00 21,7 17,3 28 15 42 23 ESE 1010,0 48 0,0
14.06.2019 18:00:00 23,5 15,8 28 15 55 30 ESE 1010,2 42 0,0
14.06.2019 17:00:00 24,5 15,4 34 18 72 39 E 1010,0 30 0,0
14.06.2019 16:00:00 22,9 14,7 61 33 78 42 E 1008,6 0 0,0
14.06.2019 15:00:00 24,3 14,1 57 31 85 46 E 1009,0 24 0,0
14.06.2019 14:00:00 24,3 13,5 63 34 98 53 E 1009,3 18 -
14.06.2019 13:00:00 24,9 13,4 59 32 81 44 E 1009,4 54 0,0
14.06.2019 12:00:00 24,0 14,4 59 32 83 45 E 1010,1 48 0,0
14.06.2019 11:00:00 24,7 14,2 57 31 80 43 E 1010,5 60 0,0
14.06.2019 10:00:00 23,6 13,7 44 24 78 42 E 1011,2 6 0,0
14.06.2019 09:00:00 23,3 13,5 57 31 87 47 E 1010,4 30 0,0
14.06.2019 08:00:00 22,9 12,8 55 30 83 45 E 1010,2 48 -
14.06.2019 07:00:00 20,7 15,0 50 27 74 40 E 1010,5 0 0,0
14.06.2019 06:00:00 20,2 14,8 48 26 68 37 E 1011,2 0 0,0
14.06.2019 05:00:00 20,2 12,2 41 22 63 34 E 1012,2 0 0,0
14.06.2019 04:00:00 19,5 13,7 34 18 55 30 E 1013,3 0 0,0
14.06.2019 03:00:00 19,5 14,1 35 19 54 29 E 1013,7 0 0,0
14.06.2019 02:00:00 19,0 15,3 31 17 70 38 ENE 1014,2 0 -
14.06.2019 01:00:00 19,0 12,0 39 21 68 37 E 1014,0 0 0,0
14.06.2019 00:00:00 18,7 14,0 31 17 52 28 E 1015,0 0 0,0
13.06.2019 23:00:00 18,6 14,1 31 17 46 25 E 1015,3 0 0,0
13.06.2019 22:00:00 18,5 13,8 28 15 44 24 E 1015,1 0 0,0
13.06.2019 21:00:00 18,6 13,0 29 16 46 25 E 1014,7 0 0,0
13.06.2019 20:00:00 18,9 12,2 28 15 41 22 E 1015,1 6 -
13.06.2019 19:00:00 20,2 12,4 16 9 34 18 E 1015,4 30 0,0
13.06.2019 18:00:00 20,5 12,7 18 10 29 16 ESE 1015,0 54 0,0
13.06.2019 17:00:00 21,4 12,3 13 7 24 13 ESE 1016,1 54 0,0
13.06.2019 16:00:00 21,8 11,8 13 7 21 11 ESE 1016,0 60 0,0
13.06.2019 15:00:00 21,0 11,6 11 6 22 12 SE 1016,0 60 0,0
13.06.2019 14:00:00 21,2 12,3 15 8 26 14 SE 1016,2 60 -
13.06.2019 13:00:00 20,2 10,9 16 9 29 16 SE 1016,1 60 0,0
13.06.2019 12:00:00 20,1 12,3 16 9 26 14 ESE 1016,0 60 0,0
13.06.2019 11:00:00 20,1 12,3 18 10 31 17 E 1016,3 60 0,0
13.06.2019 10:00:00 19,3 11,8 15 8 26 14 ESE 1015,9 60 0,0
13.06.2019 09:00:00 19,0 11,1 5 3 21 11 E 1015,6 60 0,0
13.06.2019 08:00:00 18,0 9,9 8 4 11 6 E 1015,2 60 -
13.06.2019 07:00:00 15,3 9,9 8 4 16 9 W 1015,0 54 0,0
13.06.2019 06:00:00 14,5 9,7 13 7 26 14 W 1014,4 0 0,0
13.06.2019 05:00:00 14,8 9,4 16 9 28 15 WNW 1013,9 0 0,0
13.06.2019 04:00:00 15,0 10,4 22 12 37 20 W 1013,8 0 0,0
13.06.2019 03:00:00 15,1 11,1 28 15 48 26 W 1014,3 0 0,0
13.06.2019 02:00:00 15,5 11,1 37 20 50 27 W 1014,7 0 -
13.06.2019 01:00:00 15,7 11,1 35 19 52 28 W 1014,9 0 0,0
13.06.2019 00:00:00 15,9 11,1 39 21 55 30 W 1014,9 0 0,0
12.06.2019 23:00:00 16,1 10,6 41 22 55 30 W 1014,5 0 0,0
12.06.2019 22:00:00 16,2 10,3 42 23 57 31 W 1014,1 0 0,0
12.06.2019 21:00:00 16,6 10,4 35 19 50 27 W 1013,4 60 0,0
12.06.2019 20:00:00 17,8 9,9 39 21 59 32 W 1012,8 60 -
12.06.2019 19:00:00 18,3 8,8 41 22 61 33 W 1012,5 60 0,0
12.06.2019 18:00:00 18,8 10,1 44 24 61 33 W 1012,6 60 0,0
12.06.2019 17:00:00 19,6 10,0 42 23 65 35 W 1012,8 60 0,0
12.06.2019 16:00:00 19,6 10,0 42 23 63 34 W 1012,7 60 0,0
12.06.2019 15:00:00 19,8 11,0 42 23 65 35 W 1012,4 60 0,0
12.06.2019 14:00:00 19,8 10,8 35 19 54 29 W 1012,4 60 -
12.06.2019 13:00:00 20,2 11,1 34 18 44 24 W 1012,2 60 0,0
12.06.2019 12:00:00 19,9 11,1 31 17 41 22 W 1011,9 60 0,0
12.06.2019 11:00:00 19,7 10,7 26 14 37 20 W 1011,7 60 0,0
12.06.2019 10:00:00 18,1 10,0 26 14 37 20 W 1011,7 60 0,0
12.06.2019 09:00:00 17,2 10,1 24 13 39 21 WNW 1011,6 60 0,0
12.06.2019 08:00:00 15,6 9,9 29 16 42 23 WNW 1011,0 60 -
12.06.2019 07:00:00 14,9 10,7 26 14 37 20 W 1010,7 48 0,0
12.06.2019 06:00:00 14,9 10,9 28 15 39 21 WNW 1010,2 0 0,0
12.06.2019 05:00:00 15,4 10,8 22 12 44 24 WNW 1010,1 0 0,0
12.06.2019 04:00:00 16,0 12,4 31 17 44 24 W 1010,3 0 0,0
12.06.2019 03:00:00 16,3 11,9 16 9 42 23 W 1010,4 0 0,0
12.06.2019 02:00:00 16,0 13,1 31 17 46 25 W 1010,7 0 -
12.06.2019 01:00:00 16,5 12,6 31 17 42 23 W 1010,6 0 0,0
12.06.2019 00:00:00 16,9 11,8 28 15 41 22 W 1010,5 0 0,0
11.06.2019 23:00:00 17,5 13,0 22 12 29 16 W 1010,2 0 0,0
11.06.2019 22:00:00 18,5 13,1 9 5 16 9 ESE 1009,9 0 0,0
11.06.2019 21:00:00 18,7 14,8 13 7 39 21 WNW 1009,4 0 0,0

tt = Température de l'air
td = dewpoint
ff = Vitesse du vent
fx = gusts
dd = Direction du vent
ppp = reduced air pressure
sd = Ensoleillement
rr = Quantités de précipitations

stations d'obs. à proximité